sensor_id;sensor_type;location;lat;lon;timestamp;pressure;altitude;pressure_sealevel;temperature;humidity
78299;BME280;67556;55.656;12.590;2023-04-27T00:00:11;101407.38;;;3.67;69.06
78299;BME280;67556;55.656;12.590;2023-04-27T00:02:38;101386.97;;;3.64;69.13
78299;BME280;67556;55.656;12.590;2023-04-27T00:05:06;101388.78;;;3.65;69.59
78299;BME280;67556;55.656;12.590;2023-04-27T00:07:34;101397.28;;;3.61;69.80
78299;BME280;67556;55.656;12.590;2023-04-27T00:10:00;101397.09;;;3.58;69.70
78299;BME280;67556;55.656;12.590;2023-04-27T00:12:27;101397.66;;;3.54;69.94
78299;BME280;67556;55.656;12.590;2023-04-27T00:14:53;101396.84;;;3.55;69.84
78299;BME280;67556;55.656;12.590;2023-04-27T00:17:20;101395.72;;;3.52;70.63
78299;BME280;67556;55.656;12.590;2023-04-27T00:19:46;101392.16;;;3.51;70.25
78299;BME280;67556;55.656;12.590;2023-04-27T00:22:13;101394.34;;;3.45;70.81
78299;BME280;67556;55.656;12.590;2023-04-27T00:24:41;101404.19;;;3.47;70.49
78299;BME280;67556;55.656;12.590;2023-04-27T00:27:08;101396.97;;;3.45;70.96
78299;BME280;67556;55.656;12.590;2023-04-27T00:29:37;101409.03;;;3.41;70.83
78299;BME280;67556;55.656;12.590;2023-04-27T00:32:07;101399.59;;;3.45;70.63
78299;BME280;67556;55.656;12.590;2023-04-27T00:34:33;101403.84;;;3.43;71.11
78299;BME280;67556;55.656;12.590;2023-04-27T00:37:00;101409.13;;;3.43;70.95
78299;BME280;67556;55.656;12.590;2023-04-27T00:39:26;101410.63;;;3.39;71.06
78299;BME280;67556;55.656;12.590;2023-04-27T00:41:54;101409.59;;;3.37;70.88
78299;BME280;67556;55.656;12.590;2023-04-27T01:11:15;101420.47;;;3.18;72.85
78299;BME280;67556;55.656;12.590;2023-04-27T01:13:41;101418.75;;;3.19;72.49
78299;BME280;67556;55.656;12.590;2023-04-27T01:16:08;101409.28;;;3.21;73.09
78299;BME280;67556;55.656;12.590;2023-04-27T01:18:34;101421.38;;;3.19;72.78
78299;BME280;67556;55.656;12.590;2023-04-27T01:21:02;101417.06;;;3.08;73.18
78299;BME280;67556;55.656;12.590;2023-04-27T01:23:30;101421.03;;;3.14;73.04
78299;BME280;67556;55.656;12.590;2023-04-27T01:25:56;101421.16;;;3.16;72.63
78299;BME280;67556;55.656;12.590;2023-04-27T01:28:23;101419.78;;;3.09;73.37
78299;BME280;67556;55.656;12.590;2023-04-27T01:30:49;101417.06;;;3.08;72.45
78299;BME280;67556;55.656;12.590;2023-04-27T01:33:16;101423.00;;;3.05;72.66
78299;BME280;67556;55.656;12.590;2023-04-27T01:35:42;101423.56;;;3.01;72.77
78299;BME280;67556;55.656;12.590;2023-04-27T01:38:09;101428.16;;;3.04;72.43
78299;BME280;67556;55.656;12.590;2023-04-27T01:40:37;101426.75;;;2.97;72.48
78299;BME280;67556;55.656;12.590;2023-04-27T01:43:03;101431.22;;;2.98;72.36
78299;BME280;67556;55.656;12.590;2023-04-27T01:45:30;101427.44;;;2.94;72.77
78299;BME280;67556;55.656;12.590;2023-04-27T01:47:56;101432.69;;;2.94;72.71
78299;BME280;67556;55.656;12.590;2023-04-27T01:50:24;101423.88;;;2.94;72.29
78299;BME280;67556;55.656;12.590;2023-04-27T01:52:50;101422.31;;;2.96;72.17
78299;BME280;67556;55.656;12.590;2023-04-27T01:55:17;101421.25;;;2.94;72.26
78299;BME280;67556;55.656;12.590;2023-04-27T01:57:45;101424.69;;;2.93;72.02
78299;BME280;67556;55.656;12.590;2023-04-27T02:10:17;101438.09;;;2.96;71.54
78299;BME280;67556;55.656;12.590;2023-04-27T02:12:44;101441.75;;;2.98;71.06
78299;BME280;67556;55.656;12.590;2023-04-27T02:15:14;101440.25;;;2.90;72.18
78299;BME280;67556;55.656;12.590;2023-04-27T02:17:43;101435.47;;;2.96;71.33
78299;BME280;67556;55.656;12.590;2023-04-27T02:20:11;101443.00;;;2.91;71.57
78299;BME280;67556;55.656;12.590;2023-04-27T02:22:40;101446.06;;;2.86;72.22
78299;BME280;67556;55.656;12.590;2023-04-27T02:25:08;101449.41;;;2.83;71.43
78299;BME280;67556;55.656;12.590;2023-04-27T02:27:36;101450.19;;;2.82;71.80
78299;BME280;67556;55.656;12.590;2023-04-27T02:30:05;101451.34;;;2.86;71.78
78299;BME280;67556;55.656;12.590;2023-04-27T02:32:31;101452.25;;;2.74;72.49
78299;BME280;67556;55.656;12.590;2023-04-27T02:35:35;101450.63;;;2.77;71.78
78299;BME280;67556;55.656;12.590;2023-04-27T02:38:01;101455.09;;;2.78;71.68
78299;BME280;67556;55.656;12.590;2023-04-27T02:40:28;101448.81;;;2.75;72.22
78299;BME280;67556;55.656;12.590;2023-04-27T02:42:54;101451.44;;;2.75;72.01
78299;BME280;67556;55.656;12.590;2023-04-27T02:45:22;101447.91;;;2.75;72.49
78299;BME280;67556;55.656;12.590;2023-04-27T02:47:48;101451.19;;;2.72;72.76
78299;BME280;67556;55.656;12.590;2023-04-27T02:50:16;101448.72;;;2.74;72.08
78299;BME280;67556;55.656;12.590;2023-04-27T03:16:32;101456.56;;;2.62;73.91
78299;BME280;67556;55.656;12.590;2023-04-27T03:18:59;101454.94;;;2.64;73.88
78299;BME280;67556;55.656;12.590;2023-04-27T03:21:31;101445.59;;;2.68;73.32
78299;BME280;67556;55.656;12.590;2023-04-27T03:23:59;101449.69;;;2.64;73.67
78299;BME280;67556;55.656;12.590;2023-04-27T03:26:29;101458.19;;;2.72;73.66
78299;BME280;67556;55.656;12.590;2023-04-27T03:28:56;101455.91;;;2.77;73.58
78299;BME280;67556;55.656;12.590;2023-04-27T03:31:25;101452.47;;;2.78;73.30
78299;BME280;67556;55.656;12.590;2023-04-27T03:33:56;101444.56;;;2.78;73.83
78299;BME280;67556;55.656;12.590;2023-04-27T03:43:07;101453.59;;;2.69;75.32
78299;BME280;67556;55.656;12.590;2023-04-27T03:45:34;101435.28;;;2.59;75.93
78299;BME280;67556;55.656;12.590;2023-04-27T03:48:00;101453.59;;;2.69;76.69
78299;BME280;67556;55.656;12.590;2023-04-27T03:50:28;101458.22;;;2.84;75.59
78299;BME280;67556;55.656;12.590;2023-04-27T03:52:54;101453.59;;;2.69;76.87
78299;BME280;67556;55.656;12.590;2023-04-27T03:55:21;101448.69;;;2.86;76.41
78299;BME280;67556;55.656;12.590;2023-04-27T03:57:48;101461.66;;;2.83;75.98
78299;BME280;67556;55.656;12.590;2023-04-27T04:00:15;101460.28;;;2.88;76.89
78299;BME280;67556;55.656;12.590;2023-04-27T04:02:43;101451.91;;;2.93;75.54
78299;BME280;67556;55.656;12.590;2023-04-27T04:05:10;101462.56;;;2.83;76.65
78299;BME280;67556;55.656;12.590;2023-04-27T04:07:40;101451.34;;;2.86;76.75
78299;BME280;67556;55.656;12.590;2023-04-27T04:10:08;101467.81;;;2.83;77.57
78299;BME280;67556;55.656;12.590;2023-04-27T04:12:35;101451.53;;;2.77;77.04
78299;BME280;67556;55.656;12.590;2023-04-27T04:15:02;101467.13;;;2.86;76.51
78299;BME280;67556;55.656;12.590;2023-04-27T04:17:29;101473.53;;;2.89;76.76
78299;BME280;67556;55.656;12.590;2023-04-27T04:19:58;101473.88;;;2.94;76.00
78299;BME280;67556;55.656;12.590;2023-04-27T04:22:25;101472.28;;;2.84;76.69
78299;BME280;67556;55.656;12.590;2023-04-27T04:24:52;101480.50;;;2.89;76.67
78299;BME280;67556;55.656;12.590;2023-04-27T04:27:20;101473.06;;;2.95;76.60
78299;BME280;67556;55.656;12.590;2023-04-27T04:29:46;101467.13;;;2.97;76.25
78299;BME280;67556;55.656;12.590;2023-04-27T04:32:15;101474.72;;;3.05;76.24
78299;BME280;67556;55.656;12.590;2023-04-27T04:34:47;101458.34;;;3.09;75.34
78299;BME280;67556;55.656;12.590;2023-04-27T04:37:14;101460.75;;;3.17;75.81
78299;BME280;67556;55.656;12.590;2023-04-27T04:39:42;101474.16;;;3.20;74.91
78299;BME280;67556;55.656;12.590;2023-04-27T04:42:11;101469.09;;;3.23;75.36
78299;BME280;67556;55.656;12.590;2023-04-27T04:44:37;101466.72;;;3.27;75.02
78299;BME280;67556;55.656;12.590;2023-04-27T04:47:04;101475.50;;;3.27;74.98
78299;BME280;67556;55.656;12.590;2023-04-27T04:49:31;101472.31;;;3.31;75.13
78299;BME280;67556;55.656;12.590;2023-04-27T04:51:57;101471.97;;;3.38;74.99
78299;BME280;67556;55.656;12.590;2023-04-27T04:54:24;101473.81;;;3.51;74.37
78299;BME280;67556;55.656;12.590;2023-04-27T04:56:50;101469.91;;;3.46;74.59
78299;BME280;67556;55.656;12.590;2023-04-27T04:59:18;101481.94;;;3.54;74.22
78299;BME280;67556;55.656;12.590;2023-04-27T05:01:45;101480.31;;;3.56;74.47
78299;BME280;67556;55.656;12.590;2023-04-27T05:04:11;101495.09;;;3.54;74.27
78299;BME280;67556;55.656;12.590;2023-04-27T05:06:38;101480.31;;;3.56;74.08
78299;BME280;67556;55.656;12.590;2023-04-27T05:09:04;101477.00;;;3.59;73.82
78299;BME280;67556;55.656;12.590;2023-04-27T05:11:31;101480.19;;;3.66;73.42
78299;BME280;67556;55.656;12.590;2023-04-27T05:13:57;101481.91;;;3.66;73.84
78299;BME280;67556;55.656;12.590;2023-04-27T05:16:25;101481.22;;;3.68;73.76
78299;BME280;67556;55.656;12.590;2023-04-27T05:18:52;101475.38;;;3.72;73.83
78299;BME280;67556;55.656;12.590;2023-04-27T05:21:19;101487.63;;;3.72;73.25
78299;BME280;67556;55.656;12.590;2023-04-27T05:23:47;101476.78;;;3.67;73.66
78299;BME280;67556;55.656;12.590;2023-04-27T05:26:16;101483.63;;;3.77;73.23
78299;BME280;67556;55.656;12.590;2023-04-27T05:28:44;101472.59;;;3.83;73.16
78299;BME280;67556;55.656;12.590;2023-04-27T05:31:11;101486.78;;;3.96;72.91
78299;BME280;67556;55.656;12.590;2023-04-27T05:33:38;101484.16;;;3.96;72.70
78299;BME280;67556;55.656;12.590;2023-04-27T05:36:07;101475.31;;;3.96;72.49
78299;BME280;67556;55.656;12.590;2023-04-27T05:38:34;101490.19;;;4.07;72.22
78299;BME280;67556;55.656;12.590;2023-04-27T05:41:04;101482.88;;;4.03;72.57
78299;BME280;67556;55.656;12.590;2023-04-27T05:43:30;101493.88;;;4.09;71.89
78299;BME280;67556;55.656;12.590;2023-04-27T05:45:59;101474.81;;;4.13;71.49
78299;BME280;67556;55.656;12.590;2023-04-27T05:48:26;101481.91;;;4.26;71.42
78299;BME280;67556;55.656;12.590;2023-04-27T05:50:59;101479.56;;;4.31;71.59
78299;BME280;67556;55.656;12.590;2023-04-27T05:53:26;101484.69;;;4.41;71.25
78299;BME280;67556;55.656;12.590;2023-04-27T05:55:53;101489.97;;;4.41;70.83
78299;BME280;67556;55.656;12.590;2023-04-27T05:58:20;101482.91;;;4.53;70.89
78299;BME280;67556;55.656;12.590;2023-04-27T06:00:47;101487.38;;;4.54;70.43
78299;BME280;67556;55.656;12.590;2023-04-27T06:03:13;101492.97;;;4.59;69.82
78299;BME280;67556;55.656;12.590;2023-04-27T06:05:40;101488.41;;;4.56;69.54
78299;BME280;67556;55.656;12.590;2023-04-27T06:08:07;101501.41;;;4.66;69.30
78299;BME280;67556;55.656;12.590;2023-04-27T06:10:34;101489.91;;;4.78;68.39
78299;BME280;67556;55.656;12.590;2023-04-27T06:13:01;101476.31;;;4.85;68.34
78299;BME280;67556;55.656;12.590;2023-04-27T06:15:27;101492.38;;;5.01;67.57
78299;BME280;67556;55.656;12.590;2023-04-27T06:17:53;101487.22;;;5.03;67.67
78299;BME280;67556;55.656;12.590;2023-04-27T06:20:23;101483.69;;;5.15;67.21
78299;BME280;67556;55.656;12.590;2023-04-27T06:22:49;101497.50;;;5.11;66.97
78299;BME280;67556;55.656;12.590;2023-04-27T06:25:17;101497.50;;;5.11;66.75
78299;BME280;67556;55.656;12.590;2023-04-27T06:27:43;101490.28;;;5.22;66.71
78299;BME280;67556;55.656;12.590;2023-04-27T06:30:11;101488.88;;;5.27;66.16
78299;BME280;67556;55.656;12.590;2023-04-27T06:32:37;101492.75;;;5.32;65.00
78299;BME280;67556;55.656;12.590;2023-04-27T06:35:04;101498.94;;;5.33;64.21
78299;BME280;67556;55.656;12.590;2023-04-27T06:37:31;101486.72;;;5.35;63.32
78299;BME280;67556;55.656;12.590;2023-04-27T06:39:57;101499.56;;;5.42;63.76
78299;BME280;67556;55.656;12.590;2023-04-27T06:42:25;101492.66;;;5.44;63.06
78299;BME280;67556;55.656;12.590;2023-04-27T06:44:52;101481.66;;;5.38;61.97
78299;BME280;67556;55.656;12.590;2023-04-27T06:47:19;101487.06;;;5.53;61.42
78299;BME280;67556;55.656;12.590;2023-04-27T06:49:45;101481.47;;;5.61;61.90
78299;BME280;67556;55.656;12.590;2023-04-27T06:52:12;101496.59;;;5.64;61.17
78299;BME280;67556;55.656;12.590;2023-04-27T06:54:38;101486.53;;;5.71;60.49
78299;BME280;67556;55.656;12.590;2023-04-27T06:57:05;101484.00;;;5.60;60.90
78299;BME280;67556;55.656;12.590;2023-04-27T06:59:34;101491.53;;;5.67;61.17
78299;BME280;67556;55.656;12.590;2023-04-27T07:02:02;101508.88;;;5.76;61.17
78299;BME280;67556;55.656;12.590;2023-04-27T07:04:29;101498.94;;;5.86;60.58
78299;BME280;67556;55.656;12.590;2023-04-27T07:06:55;101495.19;;;5.95;60.15
78299;BME280;67556;55.656;12.590;2023-04-27T07:09:23;101501.28;;;6.08;59.66
78299;BME280;67556;55.656;12.590;2023-04-27T07:11:50;101497.00;;;5.96;59.32
78299;BME280;67556;55.656;12.590;2023-04-27T07:14:17;101485.69;;;6.12;59.85
78299;BME280;67556;55.656;12.590;2023-04-27T07:16:45;101491.59;;;6.08;59.66
78299;BME280;67556;55.656;12.590;2023-04-27T07:19:11;101497.50;;;6.04;59.01
78299;BME280;67556;55.656;12.590;2023-04-27T07:21:40;101500.56;;;5.97;59.97
78299;BME280;67556;55.656;12.590;2023-04-27T07:24:07;101501.88;;;5.90;60.68
78299;BME280;67556;55.656;12.590;2023-04-27T07:26:34;101508.28;;;5.94;60.04
78299;BME280;67556;55.656;12.590;2023-04-27T07:29:03;101496.94;;;5.95;59.22
78299;BME280;67556;55.656;12.590;2023-04-27T07:31:30;101510.00;;;6.07;58.85
78299;BME280;67556;55.656;12.590;2023-04-27T07:33:59;101515.16;;;6.18;56.91
78299;BME280;67556;55.656;12.590;2023-04-27T07:36:25;101525.34;;;6.25;56.11
78299;BME280;67556;55.656;12.590;2023-04-27T07:38:52;101505.00;;;6.24;55.90
78299;BME280;67556;55.656;12.590;2023-04-27T07:41:21;101508.16;;;6.47;55.11
78299;BME280;67556;55.656;12.590;2023-04-27T07:43:47;101512.75;;;6.49;55.32
78299;BME280;67556;55.656;12.590;2023-04-27T07:46:17;101507.25;;;6.46;54.80
78299;BME280;67556;55.656;12.590;2023-04-27T07:48:45;101505.59;;;6.48;54.88
78299;BME280;67556;55.656;12.590;2023-04-27T07:51:16;101523.28;;;6.63;55.50
78299;BME280;67556;55.656;12.590;2023-04-27T07:53:43;101523.91;;;6.59;54.65
78299;BME280;67556;55.656;12.590;2023-04-27T07:56:10;101507.47;;;6.64;55.00
78299;BME280;67556;55.656;12.590;2023-04-27T07:58:39;101530.69;;;6.68;54.45
78299;BME280;67556;55.656;12.590;2023-04-27T08:01:13;101519.13;;;6.81;53.74
78299;BME280;67556;55.656;12.590;2023-04-27T08:03:40;101515.13;;;6.88;52.59
78299;BME280;67556;55.656;12.590;2023-04-27T08:06:06;101532.50;;;6.69;52.83
78299;BME280;67556;55.656;12.590;2023-04-27T08:08:35;101530.13;;;6.74;53.54
78299;BME280;67556;55.656;12.590;2023-04-27T08:11:02;101551.28;;;6.59;53.86
78299;BME280;67556;55.656;12.590;2023-04-27T08:13:29;101546.25;;;6.49;53.72
78299;BME280;67556;55.656;12.590;2023-04-27T08:15:56;101542.81;;;6.65;53.34
78299;BME280;67556;55.656;12.590;2023-04-27T08:18:23;101519.88;;;6.79;53.64
78299;BME280;67556;55.656;12.590;2023-04-27T08:20:51;101534.78;;;7.06;52.25
78299;BME280;67556;55.656;12.590;2023-04-27T08:23:18;101520.91;;;7.25;50.68
78299;BME280;67556;55.656;12.590;2023-04-27T08:25:46;101524.28;;;7.22;50.22
78299;BME280;67556;55.656;12.590;2023-04-27T08:28:13;101542.00;;;7.23;51.66
78299;BME280;67556;55.656;12.590;2023-04-27T08:30:42;101533.88;;;7.20;51.64
78299;BME280;67556;55.656;12.590;2023-04-27T08:33:09;101534.34;;;7.13;50.59
78299;BME280;67556;55.656;12.590;2023-04-27T08:35:36;101540.56;;;6.86;50.39
78299;BME280;67556;55.656;12.590;2023-04-27T08:38:05;101533.38;;;6.98;50.78
78299;BME280;67556;55.656;12.590;2023-04-27T08:40:33;101545.56;;;7.09;50.75
78299;BME280;67556;55.656;12.590;2023-04-27T08:43:03;101567.19;;;7.02;51.48
78299;BME280;67556;55.656;12.590;2023-04-27T08:45:30;101537.97;;;7.15;50.48
78299;BME280;67556;55.656;12.590;2023-04-27T08:47:56;101531.13;;;7.04;50.00
78299;BME280;67556;55.656;12.590;2023-04-27T08:50:22;101528.41;;;7.17;51.04
78299;BME280;67556;55.656;12.590;2023-04-27T08:52:49;101531.78;;;7.30;49.83
78299;BME280;67556;55.656;12.590;2023-04-27T08:55:22;101536.16;;;7.44;49.91
78299;BME280;67556;55.656;12.590;2023-04-27T08:57:56;101535.16;;;7.57;48.68
78299;BME280;67556;55.656;12.590;2023-04-27T09:00:39;101533.72;;;7.47;49.92
78299;BME280;67556;55.656;12.590;2023-04-27T09:03:17;101526.75;;;7.64;49.55
78299;BME280;67556;55.656;12.590;2023-04-27T09:05:45;101527.66;;;7.64;49.99
78299;BME280;67556;55.656;12.590;2023-04-27T09:08:14;101541.38;;;7.57;48.41
78299;BME280;67556;55.656;12.590;2023-04-27T09:10:44;101530.75;;;7.57;48.74
78299;BME280;67556;55.656;12.590;2023-04-27T09:13:33;101527.72;;;7.81;48.37
78299;BME280;67556;55.656;12.590;2023-04-27T09:16:04;101537.56;;;7.83;48.06
78299;BME280;67556;55.656;12.590;2023-04-27T09:18:33;101546.09;;;7.78;47.73
78299;BME280;67556;55.656;12.590;2023-04-27T09:21:01;101528.31;;;7.60;46.90
78299;BME280;67556;55.656;12.590;2023-04-27T09:23:38;101524.56;;;7.57;47.71
78299;BME280;67556;55.656;12.590;2023-04-27T09:26:06;101535.78;;;7.67;47.50
78299;BME280;67556;55.656;12.590;2023-04-27T09:28:48;101535.69;;;7.81;48.15
78299;BME280;67556;55.656;12.590;2023-04-27T09:31:30;101523.91;;;8.07;47.77
78299;BME280;67556;55.656;12.590;2023-04-27T09:33:58;101537.16;;;8.07;47.65
78299;BME280;67556;55.656;12.590;2023-04-27T09:36:31;101525.94;;;7.96;46.45
78299;BME280;67556;55.656;12.590;2023-04-27T09:39:01;101535.03;;;7.85;44.95
78299;BME280;67556;55.656;12.590;2023-04-27T09:41:32;101538.84;;;7.90;45.48
78299;BME280;67556;55.656;12.590;2023-04-27T09:44:07;101544.59;;;7.97;47.51
78299;BME280;67556;55.656;12.590;2023-04-27T09:46:42;101530.94;;;7.60;48.00
78299;BME280;67556;55.656;12.590;2023-04-27T09:49:16;101568.41;;;7.37;49.24
78299;BME280;67556;55.656;12.590;2023-04-27T09:51:50;101546.41;;;7.67;48.32
78299;BME280;67556;55.656;12.590;2023-04-27T09:54:26;101533.41;;;7.72;47.76
78299;BME280;67556;55.656;12.590;2023-04-27T09:57:02;101536.34;;;8.08;47.98
78299;BME280;67556;55.656;12.590;2023-04-27T09:59:46;101537.03;;;7.89;46.17
78299;BME280;67556;55.656;12.590;2023-04-27T10:02:22;101537.09;;;8.05;46.56
78299;BME280;67556;55.656;12.590;2023-04-27T10:05:07;101549.38;;;8.19;47.03
78299;BME280;67556;55.656;12.590;2023-04-27T10:07:39;101529.31;;;8.24;46.82
78299;BME280;67556;55.656;12.590;2023-04-27T10:10:25;101531.47;;;8.15;47.20
78299;BME280;67556;55.656;12.590;2023-04-27T10:13:00;101535.16;;;8.34;44.77
78299;BME280;67556;55.656;12.590;2023-04-27T10:15:28;101555.69;;;8.21;44.20
78299;BME280;67556;55.656;12.590;2023-04-27T10:18:24;101537.19;;;8.38;45.58
78299;BME280;67556;55.656;12.590;2023-04-27T10:21:08;101546.47;;;8.46;47.06
78299;BME280;67556;55.656;12.590;2023-04-27T10:23:47;101536.38;;;8.55;46.41
78299;BME280;67556;55.656;12.590;2023-04-27T10:26:24;101539.78;;;8.69;45.66
78299;BME280;67556;55.656;12.590;2023-04-27T10:29:04;101546.28;;;8.90;46.21
78299;BME280;67556;55.656;12.590;2023-04-27T10:31:32;101553.09;;;8.85;46.04
78299;BME280;67556;55.656;12.590;2023-04-27T10:34:08;101574.97;;;8.48;46.52
78299;BME280;67556;55.656;12.590;2023-04-27T10:36:43;101547.38;;;8.46;46.45
78299;BME280;67556;55.656;12.590;2023-04-27T10:39:16;101539.69;;;8.51;46.89
78299;BME280;67556;55.656;12.590;2023-04-27T10:41:51;101558.22;;;8.66;47.11
78299;BME280;67556;55.656;12.590;2023-04-27T10:44:23;101567.25;;;8.53;47.72
78299;BME280;67556;55.656;12.590;2023-04-27T10:46:54;101555.09;;;8.42;45.98
78299;BME280;67556;55.656;12.590;2023-04-27T10:49:22;101551.28;;;8.37;46.19
78299;BME280;67556;55.656;12.590;2023-04-27T10:51:59;101536.53;;;8.42;47.05
78299;BME280;67556;55.656;12.590;2023-04-27T10:54:29;101542.66;;;8.41;46.70
78299;BME280;67556;55.656;12.590;2023-04-27T10:57:01;101559.28;;;8.69;45.38
78299;BME280;67556;55.656;12.590;2023-04-27T10:59:30;101555.47;;;8.48;42.82
78299;BME280;67556;55.656;12.590;2023-04-27T11:01:56;101552.25;;;8.70;43.51
78299;BME280;67556;55.656;12.590;2023-04-27T11:04:36;101544.53;;;8.74;43.76
78299;BME280;67556;55.656;12.590;2023-04-27T11:07:04;101549.34;;;8.82;44.03
78299;BME280;67556;55.656;12.590;2023-04-27T11:09:34;101561.44;;;8.93;43.79
78299;BME280;67556;55.656;12.590;2023-04-27T11:12:05;101570.59;;;8.98;44.35
78299;BME280;67556;55.656;12.590;2023-04-27T11:14:34;101554.22;;;9.07;43.75
78299;BME280;67556;55.656;12.590;2023-04-27T11:17:02;101559.72;;;8.77;42.79
78299;BME280;67556;55.656;12.590;2023-04-27T11:19:29;101567.94;;;8.98;43.84
78299;BME280;67556;55.656;12.590;2023-04-27T11:22:03;101560.53;;;9.09;42.64
78299;BME280;67556;55.656;12.590;2023-04-27T11:24:33;101584.13;;;8.86;42.52
78299;BME280;67556;55.656;12.590;2023-04-27T11:26:59;101570.41;;;9.11;43.36
78299;BME280;67556;55.656;12.590;2023-04-27T11:29:38;101573.50;;;9.03;42.94
78299;BME280;67556;55.656;12.590;2023-04-27T11:32:05;101587.19;;;9.10;42.67
78299;BME280;67556;55.656;12.590;2023-04-27T11:34:32;101578.72;;;9.01;42.84
78299;BME280;67556;55.656;12.590;2023-04-27T11:37:20;101577.47;;;9.27;43.03
78299;BME280;67556;55.656;12.590;2023-04-27T11:39:53;101570.19;;;9.41;42.23
78299;BME280;67556;55.656;12.590;2023-04-27T11:42:30;101568.31;;;9.56;41.73
78299;BME280;67556;55.656;12.590;2023-04-27T11:44:58;101565.75;;;9.58;41.60
78299;BME280;67556;55.656;12.590;2023-04-27T11:47:30;101583.09;;;9.67;40.66
78299;BME280;67556;55.656;12.590;2023-04-27T11:50:00;101559.72;;;9.78;40.75
78299;BME280;67556;55.656;12.590;2023-04-27T11:52:29;101600.72;;;9.65;41.17
78299;BME280;67556;55.656;12.590;2023-04-27T11:55:04;101573.03;;;9.44;42.56
78299;BME280;67556;55.656;12.590;2023-04-27T11:57:32;101587.97;;;9.76;41.77
78299;BME280;67556;55.656;12.590;2023-04-27T12:00:03;101576.59;;;9.96;40.50
78299;BME280;67556;55.656;12.590;2023-04-27T12:02:35;101571.94;;;10.10;40.54
78299;BME280;67556;55.656;12.590;2023-04-27T12:05:10;101574.19;;;10.56;40.11
78299;BME280;67556;55.656;12.590;2023-04-27T12:07:40;101584.84;;;10.56;38.03
78299;BME280;67556;55.656;12.590;2023-04-27T12:10:08;101588.03;;;10.30;38.22
78299;BME280;67556;55.656;12.590;2023-04-27T12:12:35;101570.34;;;10.14;41.11
78299;BME280;67556;55.656;12.590;2023-04-27T12:15:09;101582.00;;;10.34;39.66
78299;BME280;67556;55.656;12.590;2023-04-27T12:17:45;101557.41;;;10.39;37.46
78299;BME280;67556;55.656;12.590;2023-04-27T12:20:13;101588.56;;;10.60;38.36
78299;BME280;67556;55.656;12.590;2023-04-27T12:22:42;101599.91;;;10.02;38.41
78299;BME280;67556;55.656;12.590;2023-04-27T12:25:14;101596.66;;;10.08;39.44
78299;BME280;67556;55.656;12.590;2023-04-27T12:27:42;101586.25;;;10.12;36.80
78299;BME280;67556;55.656;12.590;2023-04-27T12:30:12;101590.47;;;10.25;37.57
78299;BME280;67556;55.656;12.590;2023-04-27T12:32:52;101588.94;;;10.87;37.10
78299;BME280;67556;55.656;12.590;2023-04-27T12:35:21;101612.53;;;10.97;35.31
78299;BME280;67556;55.656;12.590;2023-04-27T12:37:54;101611.06;;;10.29;33.73
78299;BME280;67556;55.656;12.590;2023-04-27T12:40:21;101599.22;;;10.06;33.39
78299;BME280;67556;55.656;12.590;2023-04-27T12:42:48;101589.94;;;9.98;35.20
78299;BME280;67556;55.656;12.590;2023-04-27T12:45:21;101593.22;;;9.92;34.92
78299;BME280;67556;55.656;12.590;2023-04-27T12:47:50;101610.88;;;10.08;36.25
78299;BME280;67556;55.656;12.590;2023-04-27T12:50:18;101610.50;;;10.36;35.34
78299;BME280;67556;55.656;12.590;2023-04-27T12:52:51;101597.78;;;10.66;36.16
78299;BME280;67556;55.656;12.590;2023-04-27T12:55:21;101591.22;;;10.97;36.61
78299;BME280;67556;55.656;12.590;2023-04-27T12:57:51;101611.31;;;10.90;36.48
78299;BME280;67556;55.656;12.590;2023-04-27T13:00:25;101609.09;;;10.99;34.31
78299;BME280;67556;55.656;12.590;2023-04-27T13:02:53;101595.41;;;10.72;36.25
78299;BME280;67556;55.656;12.590;2023-04-27T13:05:21;101592.59;;;11.28;36.66
78299;BME280;67556;55.656;12.590;2023-04-27T13:07:48;101583.94;;;11.33;36.70
78299;BME280;67556;55.656;12.590;2023-04-27T13:10:14;101593.38;;;11.06;35.56
78299;BME280;67556;55.656;12.590;2023-04-27T13:12:44;101592.25;;;11.20;35.34
78299;BME280;67556;55.656;12.590;2023-04-27T13:15:12;101616.44;;;10.66;34.27
78299;BME280;67556;55.656;12.590;2023-04-27T13:17:40;101599.72;;;10.51;35.78
78299;BME280;67556;55.656;12.590;2023-04-27T13:20:08;101591.28;;;10.79;37.29
78299;BME280;67556;55.656;12.590;2023-04-27T13:22:34;101584.47;;;10.86;37.26
78299;BME280;67556;55.656;12.590;2023-04-27T13:25:01;101593.31;;;11.23;37.73
78299;BME280;67556;55.656;12.590;2023-04-27T13:27:28;101594.38;;;11.67;37.15
78299;BME280;67556;55.656;12.590;2023-04-27T13:29:56;101606.34;;;11.77;35.44
78299;BME280;67556;55.656;12.590;2023-04-27T13:32:23;101601.97;;;11.79;35.73
78299;BME280;67556;55.656;12.590;2023-04-27T13:34:50;101603.19;;;12.28;33.96
78299;BME280;67556;55.656;12.590;2023-04-27T13:37:17;101601.38;;;12.27;32.74
78299;BME280;67556;55.656;12.590;2023-04-27T13:39:44;101608.06;;;12.17;30.85
78299;BME280;67556;55.656;12.590;2023-04-27T13:42:14;101591.09;;;11.74;30.69
78299;BME280;67556;55.656;12.590;2023-04-27T13:44:40;101597.66;;;12.02;32.15
78299;BME280;67556;55.656;12.590;2023-04-27T13:47:09;101620.47;;;11.94;29.15
78299;BME280;67556;55.656;12.590;2023-04-27T13:49:39;101603.63;;;11.96;29.46
78299;BME280;67556;55.656;12.590;2023-04-27T13:52:05;101626.44;;;12.09;30.17
78299;BME280;67556;55.656;12.590;2023-04-27T13:54:44;101619.47;;;11.92;28.17
78299;BME280;67556;55.656;12.590;2023-04-27T13:57:30;101598.28;;;11.76;30.91
78299;BME280;67556;55.656;12.590;2023-04-27T14:00:04;101621.94;;;12.08;30.35
78299;BME280;67556;55.656;12.590;2023-04-27T14:02:36;101624.63;;;12.08;32.14
78299;BME280;67556;55.656;12.590;2023-04-27T14:05:13;101611.38;;;12.32;32.44